JAL16 RJTT-KLAX
Flight info
| Callsign | JAL16 |
|---|---|
| Flight time | N/A |
| Altitude | 37000 |
| Route | INUBO Y808 NOLAX Y812 ADNAP OTR5 KALNA 42N160E 43N170E/N0485F370 43N180E 44N170W 44N160W 43N150W/N0478F390 41N140W 38N130W ALLBE PIRAT BURGL IRNMN2 |
| Aircraft | A35K/H-SDE2E3GHIJ3J4J5LM1ORWXY/LB1D1 |
Departure
| Time | N/A |
|---|---|
| Airport | Tokyo Haneda International Airport (RJTT) |
Arrival
| Time | 2026-04-22 04:40 |
|---|---|
| Airport | Los Angeles International Airport (KLAX) |
| Time | Latitude | Longitude | Altitude | Speed | Heading |
|---|---|---|---|---|---|
| 2026-04-22 03:57 | 36.89836 | -122.22159 | 37127 ft | 568 kts | 130° |
| 2026-04-22 03:57 | 36.87852 | -122.18651 | 37082 ft | 568 kts | 130° |
| 2026-04-22 03:57 | 36.83290 | -122.10599 | 37132 ft | 568 kts | 130° |
| 2026-04-22 03:58 | 36.78731 | -122.02567 | 37137 ft | 566 kts | 130° |
| 2026-04-22 03:58 | 36.74943 | -121.95909 | 37137 ft | 566 kts | 130° |
| 2026-04-22 03:59 | 36.70385 | -121.87917 | 37143 ft | 565 kts | 130° |
| 2026-04-22 03:59 | 36.65825 | -121.79937 | 37119 ft | 565 kts | 130° |
| 2026-04-22 04:00 | 36.61271 | -121.71987 | 37119 ft | 564 kts | 131° |
| 2026-04-22 04:00 | 36.56742 | -121.64101 | 37098 ft | 564 kts | 131° |
| 2026-04-22 04:01 | 36.52156 | -121.56133 | 37143 ft | 563 kts | 131° |
| 2026-04-22 04:01 | 36.47594 | -121.48224 | 37134 ft | 563 kts | 131° |
| 2026-04-22 04:02 | 36.43020 | -121.40315 | 37129 ft | 563 kts | 131° |
| 2026-04-22 04:02 | 36.38481 | -121.32483 | 37134 ft | 564 kts | 131° |
| 2026-04-22 04:03 | 36.33892 | -121.24584 | 37133 ft | 563 kts | 131° |
| 2026-04-22 04:03 | 36.29308 | -121.16709 | 37124 ft | 562 kts | 131° |
| 2026-04-22 04:04 | 36.24727 | -121.08860 | 37124 ft | 562 kts | 131° |
| 2026-04-22 04:04 | 36.20146 | -121.01030 | 37126 ft | 562 kts | 131° |
| 2026-04-22 04:05 | 36.15552 | -120.93193 | 37132 ft | 562 kts | 131° |
| 2026-04-22 04:05 | 36.10954 | -120.85367 | 37134 ft | 562 kts | 131° |
| 2026-04-22 04:06 | 36.06356 | -120.77561 | 37134 ft | 561 kts | 131° |
| 2026-04-22 04:06 | 36.01757 | -120.69770 | 37128 ft | 562 kts | 131° |
| 2026-04-22 04:07 | 35.97147 | -120.61978 | 37135 ft | 562 kts | 131° |
| 2026-04-22 04:07 | 35.92537 | -120.54203 | 37140 ft | 562 kts | 131° |
| 2026-04-22 04:08 | 35.87911 | -120.46420 | 37123 ft | 562 kts | 131° |
| 2026-04-22 04:08 | 35.83277 | -120.38640 | 37158 ft | 563 kts | 132° |
| 2026-04-22 04:09 | 35.78644 | -120.30878 | 37142 ft | 562 kts | 132° |
| 2026-04-22 04:09 | 35.74007 | -120.23129 | 37105 ft | 562 kts | 131° |
| 2026-04-22 04:10 | 35.69369 | -120.15386 | 37115 ft | 563 kts | 132° |
| 2026-04-22 04:10 | 35.64010 | -120.08659 | 37142 ft | 539 kts | 155° |
| 2026-04-22 04:11 | 35.57637 | -120.03903 | 37084 ft | 535 kts | 157° |
| 2026-04-22 04:11 | 35.51302 | -119.99210 | 37011 ft | 531 kts | 156° |
| 2026-04-22 04:12 | 35.48171 | -119.96865 | 36259 ft | 522 kts | 156° |
| 2026-04-22 04:12 | 35.45090 | -119.94553 | 35235 ft | 514 kts | 156° |
| 2026-04-22 04:12 | 35.42044 | -119.92265 | 34722 ft | 502 kts | 156° |
| 2026-04-22 04:12 | 35.39115 | -119.90071 | 34271 ft | 497 kts | 156° |
| 2026-04-22 04:13 | 35.36142 | -119.87848 | 33807 ft | 492 kts | 156° |
| 2026-04-22 04:13 | 35.33272 | -119.85700 | 33342 ft | 487 kts | 156° |
| 2026-04-22 04:13 | 35.30398 | -119.83550 | 32887 ft | 483 kts | 156° |
| 2026-04-22 04:13 | 35.27580 | -119.81206 | 32411 ft | 484 kts | 152° |
| 2026-04-22 04:14 | 35.24936 | -119.78761 | 31945 ft | 481 kts | 150° |
| 2026-04-22 04:14 | 35.22291 | -119.76276 | 31425 ft | 477 kts | 150° |
| 2026-04-22 04:14 | 35.19674 | -119.73821 | 31013 ft | 472 kts | 150° |
| 2026-04-22 04:14 | 35.17085 | -119.71398 | 30589 ft | 467 kts | 150° |
| 2026-04-22 04:15 | 35.14513 | -119.68995 | 30118 ft | 463 kts | 150° |
| 2026-04-22 04:15 | 35.11968 | -119.66621 | 29643 ft | 458 kts | 150° |
| 2026-04-22 04:15 | 35.09451 | -119.64275 | 29205 ft | 452 kts | 150° |
| 2026-04-22 04:15 | 35.06963 | -119.61957 | 28787 ft | 447 kts | 150° |
| 2026-04-22 04:16 | 35.04505 | -119.59671 | 28318 ft | 442 kts | 150° |
| 2026-04-22 04:16 | 34.99621 | -119.55141 | 27507 ft | 440 kts | 150° |
| 2026-04-22 04:16 | 34.97192 | -119.52888 | 27098 ft | 437 kts | 150° |
| 2026-04-22 04:17 | 34.94787 | -119.50656 | 26664 ft | 433 kts | 150° |
| 2026-04-22 04:17 | 34.92402 | -119.48446 | 26251 ft | 429 kts | 151° |
| 2026-04-22 04:17 | 34.90021 | -119.46255 | 25824 ft | 429 kts | 152° |
| 2026-04-22 04:17 | 34.87582 | -119.44081 | 25501 ft | 441 kts | 152° |
| 2026-04-22 04:18 | 34.85160 | -119.41933 | 25020 ft | 445 kts | 151° |
| 2026-04-22 04:18 | 34.82671 | -119.39711 | 24532 ft | 444 kts | 151° |
| 2026-04-22 04:18 | 34.80185 | -119.37487 | 24081 ft | 441 kts | 151° |
| 2026-04-22 04:18 | 34.77723 | -119.35288 | 23629 ft | 437 kts | 151° |
| 2026-04-22 04:19 | 34.75295 | -119.33111 | 23283 ft | 430 kts | 151° |
| 2026-04-22 04:19 | 34.72894 | -119.30977 | 22816 ft | 427 kts | 152° |
| 2026-04-22 04:19 | 34.70485 | -119.28877 | 22304 ft | 424 kts | 152° |
| 2026-04-22 04:19 | 34.68100 | -119.26803 | 21862 ft | 419 kts | 152° |
| 2026-04-22 04:20 | 34.65739 | -119.24748 | 21460 ft | 416 kts | 152° |
| 2026-04-22 04:20 | 34.63397 | -119.22711 | 21045 ft | 412 kts | 153° |
| 2026-04-22 04:20 | 34.61075 | -119.20710 | 20626 ft | 407 kts | 152° |
| 2026-04-22 04:20 | 34.58810 | -119.18761 | 20213 ft | 403 kts | 153° |
| 2026-04-22 04:21 | 34.56525 | -119.16803 | 19899 ft | 402 kts | 153° |
| 2026-04-22 04:21 | 34.54237 | -119.14841 | 19678 ft | 403 kts | 153° |
| 2026-04-22 04:21 | 34.51946 | -119.12875 | 19465 ft | 403 kts | 152° |
| 2026-04-22 04:21 | 34.49699 | -119.10877 | 19219 ft | 400 kts | 151° |
| 2026-04-22 04:22 | 34.47485 | -119.08876 | 18615 ft | 398 kts | 150° |
| 2026-04-22 04:22 | 34.45247 | -119.06856 | 17776 ft | 404 kts | 151° |
| 2026-04-22 04:22 | 34.42971 | -119.04863 | 16959 ft | 400 kts | 152° |
| 2026-04-22 04:22 | 34.40723 | -119.02910 | 15987 ft | 393 kts | 152° |
| 2026-04-22 04:23 | 34.38527 | -119.00998 | 15541 ft | 386 kts | 152° |
| 2026-04-22 04:23 | 34.36370 | -118.99120 | 15141 ft | 379 kts | 152° |
| 2026-04-22 04:23 | 34.34245 | -118.97268 | 14744 ft | 373 kts | 152° |
| 2026-04-22 04:23 | 34.32165 | -118.95424 | 14325 ft | 369 kts | 150° |
| 2026-04-22 04:24 | 34.30131 | -118.93565 | 13908 ft | 363 kts | 150° |
| 2026-04-22 04:24 | 34.28138 | -118.91744 | 13511 ft | 357 kts | 150° |
| 2026-04-22 04:24 | 34.26180 | -118.89962 | 13249 ft | 346 kts | 150° |
| 2026-04-22 04:24 | 34.24280 | -118.88235 | 13099 ft | 332 kts | 151° |
| 2026-04-22 04:25 | 34.22493 | -118.86589 | 12965 ft | 319 kts | 150° |
| 2026-04-22 04:25 | 34.20884 | -118.85100 | 12747 ft | 312 kts | 151° |
| 2026-04-22 04:25 | 34.19166 | -118.83521 | 12442 ft | 308 kts | 150° |
| 2026-04-22 04:25 | 34.17467 | -118.81963 | 12137 ft | 304 kts | 150° |
| 2026-04-22 04:26 | 34.15790 | -118.80422 | 11841 ft | 303 kts | 149° |
| 2026-04-22 04:26 | 34.14175 | -118.78725 | 11569 ft | 312 kts | 144° |
| 2026-04-22 04:26 | 34.12581 | -118.76936 | 11237 ft | 313 kts | 143° |
| 2026-04-22 04:26 | 34.11000 | -118.75156 | 10955 ft | 310 kts | 143° |
| 2026-04-22 04:27 | 34.09419 | -118.73398 | 10657 ft | 308 kts | 143° |
| 2026-04-22 04:27 | 34.07831 | -118.71678 | 10379 ft | 304 kts | 145° |
| 2026-04-22 04:27 | 34.06251 | -118.69973 | 10116 ft | 303 kts | 144° |
| 2026-04-22 04:27 | 34.04723 | -118.68304 | 9903 ft | 292 kts | 143° |
| 2026-04-22 04:28 | 34.03376 | -118.66461 | 9626 ft | 297 kts | 126° |
| 2026-04-22 04:28 | 34.02689 | -118.64100 | 9305 ft | 302 kts | 102° |
| 2026-04-22 04:28 | 34.02435 | -118.61589 | 8986 ft | 297 kts | 98° |
| 2026-04-22 04:28 | 34.02240 | -118.59163 | 8820 ft | 286 kts | 98° |
| 2026-04-22 04:29 | 34.02040 | -118.56814 | 8644 ft | 276 kts | 99° |
| 2026-04-22 04:29 | 34.01843 | -118.54579 | 8374 ft | 261 kts | 99° |
| 2026-04-22 04:29 | 34.01648 | -118.52424 | 8117 ft | 259 kts | 99° |
| 2026-04-22 04:29 | 34.01447 | -118.50275 | 7865 ft | 257 kts | 99° |
| 2026-04-22 04:30 | 34.01246 | -118.48138 | 7628 ft | 255 kts | 99° |
| 2026-04-22 04:30 | 34.01090 | -118.46030 | 7361 ft | 252 kts | 92° |
| 2026-04-22 04:30 | 34.01291 | -118.43930 | 7046 ft | 251 kts | 80° |
| 2026-04-22 04:30 | 34.01642 | -118.41888 | 6620 ft | 249 kts | 78° |
| 2026-04-22 04:31 | 34.02007 | -118.39853 | 6164 ft | 246 kts | 78° |
| 2026-04-22 04:31 | 34.02369 | -118.37805 | 5722 ft | 261 kts | 78° |
| 2026-04-22 04:31 | 34.02759 | -118.35571 | 5285 ft | 279 kts | 78° |
| 2026-04-22 04:31 | 34.03165 | -118.33269 | 4850 ft | 281 kts | 78° |
| 2026-04-22 04:32 | 34.03514 | -118.30973 | 4395 ft | 277 kts | 82° |
| 2026-04-22 04:32 | 34.03760 | -118.28675 | 3996 ft | 274 kts | 84° |
| 2026-04-22 04:32 | 34.03928 | -118.26451 | 3581 ft | 260 kts | 85° |
| 2026-04-22 04:32 | 34.04073 | -118.24331 | 3135 ft | 249 kts | 85° |
| 2026-04-22 04:33 | 34.04207 | -118.22290 | 2706 ft | 239 kts | 85° |
| 2026-04-22 04:33 | 34.04326 | -118.20363 | 2500 ft | 222 kts | 85° |
| 2026-04-22 04:33 | 34.04417 | -118.18605 | 2498 ft | 199 kts | 85° |
| 2026-04-22 04:33 | 34.04494 | -118.17031 | 2485 ft | 181 kts | 85° |
| 2026-04-22 04:34 | 34.04450 | -118.15529 | 2471 ft | 182 kts | 105° |
| 2026-04-22 04:34 | 34.03749 | -118.14317 | 2473 ft | 177 kts | 149° |
| 2026-04-22 04:34 | 34.02612 | -118.13970 | 2484 ft | 167 kts | 192° |
| 2026-04-22 04:34 | 34.01599 | -118.14537 | 2496 ft | 158 kts | 223° |
| 2026-04-22 04:35 | 34.00792 | -118.15438 | 2496 ft | 158 kts | 230° |
| 2026-04-22 04:35 | 34.00043 | -118.16408 | 2489 ft | 159 kts | 231° |
| 2026-04-22 04:35 | 33.99295 | -118.17396 | 2498 ft | 160 kts | 231° |
| 2026-04-22 04:35 | 33.98683 | -118.18500 | 2505 ft | 161 kts | 250° |
| 2026-04-22 04:36 | 33.98283 | -118.19826 | 2506 ft | 173 kts | 255° |
| 2026-04-22 04:36 | 33.97939 | -118.21229 | 2507 ft | 175 kts | 256° |
| 2026-04-22 04:36 | 33.97610 | -118.22640 | 2502 ft | 176 kts | 257° |
| 2026-04-22 04:36 | 33.97288 | -118.24053 | 2503 ft | 174 kts | 257° |
| 2026-04-22 04:37 | 33.96969 | -118.25461 | 2504 ft | 175 kts | 257° |
| 2026-04-22 04:37 | 33.96656 | -118.26854 | 2501 ft | 170 kts | 257° |
| 2026-04-22 04:37 | 33.96426 | -118.28233 | 2411 ft | 162 kts | 264° |
| 2026-04-22 04:37 | 33.96277 | -118.29532 | 2108 ft | 155 kts | 264° |
| 2026-04-22 04:38 | 33.96153 | -118.30784 | 1763 ft | 151 kts | 265° |
| 2026-04-22 04:38 | 33.96044 | -118.32028 | 1405 ft | 147 kts | 265° |
| 2026-04-22 04:38 | 33.95924 | -118.33235 | 1117 ft | 142 kts | 263° |
| 2026-04-22 04:38 | 33.95796 | -118.34379 | 901 ft | 133 kts | 262° |
| 2026-04-22 04:39 | 33.95678 | -118.35447 | 802 ft | 128 kts | 264° |
| 2026-04-22 04:39 | 33.95579 | -118.36515 | 675 ft | 130 kts | 263° |
| 2026-04-22 04:39 | 33.95475 | -118.37607 | 527 ft | 131 kts | 263° |
| 2026-04-22 04:39 | 33.95369 | -118.38684 | 333 ft | 127 kts | 261° |
| 2026-04-22 04:40 | 33.95256 | -118.39742 | 181 ft | 127 kts | 264° |
| 2026-04-22 04:40 | 33.95158 | -118.40776 | 101 ft | 118 kts | 262° |
| 2026-04-22 04:40 | 33.95066 | -118.41609 | 100 ft | 79 kts | 262° |
| 2026-04-22 04:40 | 33.95017 | -118.42092 | 102 ft | 37 kts | 263° |
| 2026-04-22 04:41 | 33.94992 | -118.42331 | 101 ft | 28 kts | 261° |
| 2026-04-22 04:41 | 33.94931 | -118.42547 | 102 ft | 27 kts | 240° |
| 2026-04-22 04:41 | 33.94863 | -118.42660 | 104 ft | 0 kts | 228° |
| 2026-04-22 04:43 | 33.94859 | -118.42664 | 103 ft | 2 kts | 228° |
| 2026-04-22 04:43 | 33.94813 | -118.42717 | 105 ft | 13 kts | 218° |
| 2026-04-22 04:43 | 33.94733 | -118.42768 | 104 ft | 13 kts | 196° |
| 2026-04-22 04:43 | 33.94644 | -118.42749 | 102 ft | 14 kts | 121° |
| 2026-04-22 04:44 | 33.94643 | -118.42627 | 100 ft | 16 kts | 84° |
| 2026-04-22 04:44 | 33.94658 | -118.42481 | 102 ft | 19 kts | 83° |
| 2026-04-22 04:44 | 33.94675 | -118.42311 | 104 ft | 22 kts | 83° |
| 2026-04-22 04:44 | 33.94693 | -118.42133 | 101 ft | 18 kts | 83° |
| 2026-04-22 04:45 | 33.94709 | -118.41971 | 100 ft | 21 kts | 83° |
| 2026-04-22 04:45 | 33.94727 | -118.41787 | 101 ft | 24 kts | 83° |
| 2026-04-22 04:45 | 33.94738 | -118.41672 | 102 ft | 0 kts | 83° |
| 2026-04-22 04:45 | 33.94739 | -118.41663 | 101 ft | 4 kts | 82° |
| 2026-04-22 04:46 | 33.94749 | -118.41571 | 101 ft | 14 kts | 83° |
| 2026-04-22 04:46 | 33.94765 | -118.41438 | 102 ft | 18 kts | 76° |
| 2026-04-22 04:46 | 33.94773 | -118.41312 | 102 ft | 14 kts | 128° |
| 2026-04-22 04:46 | 33.94628 | -118.41275 | 101 ft | 19 kts | 173° |
| 2026-04-22 04:47 | 33.94536 | -118.41261 | 101 ft | 21 kts | 173° |
| 2026-04-22 04:47 | 33.94396 | -118.41240 | 99 ft | 18 kts | 173° |
| 2026-04-22 04:47 | 33.94272 | -118.41221 | 100 ft | 19 kts | 172° |
| 2026-04-22 04:47 | 33.94223 | -118.41214 | 99 ft | 3 kts | 172° |
| 2026-04-22 04:48 | 33.94185 | -118.41208 | 102 ft | 11 kts | 173° |
| 2026-04-22 04:48 | 33.94120 | -118.41198 | 100 ft | 6 kts | 173° |
| 2026-04-22 04:48 | 33.94093 | -118.41147 | 102 ft | 11 kts | 84° |
| 2026-04-22 04:48 | 33.94097 | -118.41104 | 101 ft | 1 kts | 83° |
| 2026-04-22 04:49 | 33.94100 | -118.41081 | 100 ft | 0 kts | 83° |